首页
METAR-TAF:

METAR-TAF

机场 :

Glendale Municipal Airport

格蘭岱爾, 亞利桑那州, 美国

纬度: 33-31-38N, 经度: 112-17-43W, 海拔: 325米

当前天气观测

该预报发布于3小时和18分钟前的01:48 UTC
风速20节,风向南转西南
温度 40°C
湿度 23%
气压 1010 hPa
能見度: 16.1公里
少量云层高于8000英尺
少量云层高于18000英尺

METAR: KGEU 150148Z 21020KT 10SM FEW080 FEW180 40/15 A2982 RMK LAST

时间: 22:06 (05:06 UTC)


TAF: 丢失

超过4000个机场的气象观测和天气预报(METAR&TAF报告)。

可查询的气象台以黄色和红色小点在地图上表示。

将鼠标移到小点上方,可查看气象台名称。

然后点击查看天气观测和预报。

如需切换地图:点击带黑十字的绿色按钮放大地图;点击带横线的绿色按钮缩小地图;或者点击绿色箭头查看邻近地区的地图。


METAR-TAF: